Hauptseite
METAR-TAF:

METAR-TAF

Flughäfen :

Killarney, Irland

Flughafen Kerry

Breite: 52-10-51N, Länge: 9-31-26W, Höhe: 34 m

Beobachtung

Neuester Wetterbericht von vor 11 Minuten, um 19:00 UTC
Wind 10 kt aus Ost/Südost
Temperatur 5°C
Luftfeuchtigkeit 70%
Luftdruck 1023 hPa
Sichtweite 10 km oder mehr
Durchbrochene Bewölkung in der Höhe von 2500 ft

METAR: EIKY 251900Z 12010KT 9999 BKN025 05/00 Q1023

Zeit: 19:11 (19:11 UTC)

Prognose

Neuester Wetterbericht von vor 2 Stunden und 11 Minuten, um 17:00 UTC
Gültige Prognose vom 25 um 18 UTC bis 25 um 21 UTC
Wind 13 kt aus Südost
Sichtweite 10 km oder mehr
Durchbrochene Bewölkung in der Höhe von 2800 ft

TAF: EIKY 251700Z 2518/2521 13013KT 9999 BKN028

Wetterbeobachtungen und Prognosen von mehr als 4000 Flughäfen (METAR und TAF Bericht).

Die verfügbaren Stationen werden durch gelbe und rote Markierungen auf der Karte dargestellt.

Führen Sie die Maus auf sie, um den Namen der Station zu sehen.

Darauf klicken, um die Beobachtung von Wetterbeobachtungen und Prognosen zu sehen.

Um die Karte zu ändern : klicken Sie auf den grünen Tasten mit einem schwarzen Kreuz Zum Vergrößern, auf den grünen Button mit einem Gedankenstrich zu verkleinern, oder auf die grünen Pfeile für benachbarte Karten.


METAR-TAF: